sensor_id;sensor_type;location;lat;lon;timestamp;pressure;altitude;pressure_sealevel;temperature;humidity
78841;BME280;68191;47.190;27.558;2023-02-28T00:00:40;101049.11;;;21.19;48.91
78841;BME280;68191;47.190;27.558;2023-02-28T00:03:11;101052.74;;;21.18;48.98
78841;BME280;68191;47.190;27.558;2023-02-28T00:05:42;101048.84;;;21.17;48.96
78841;BME280;68191;47.190;27.558;2023-02-28T00:08:12;101048.34;;;21.17;48.96
78841;BME280;68191;47.190;27.558;2023-02-28T00:10:43;101049.63;;;21.16;48.92
78841;BME280;68191;47.190;27.558;2023-02-28T00:13:13;101056.11;;;21.16;48.90
78841;BME280;68191;47.190;27.558;2023-02-28T00:15:43;101062.60;;;21.16;48.85
78841;BME280;68191;47.190;27.558;2023-02-28T00:18:14;101068.06;;;21.14;48.86
78841;BME280;68191;47.190;27.558;2023-02-28T00:20:44;101071.36;;;21.14;48.87
78841;BME280;68191;47.190;27.558;2023-02-28T00:23:15;101069.72;;;21.14;48.95
78841;BME280;68191;47.190;27.558;2023-02-28T00:25:46;101074.68;;;21.12;48.97
78841;BME280;68191;47.190;27.558;2023-02-28T00:28:16;101075.61;;;21.12;48.95
78841;BME280;68191;47.190;27.558;2023-02-28T00:30:47;101076.89;;;21.12;48.82
78841;BME280;68191;47.190;27.558;2023-02-28T00:33:17;101078.39;;;21.11;49.00
78841;BME280;68191;47.190;27.558;2023-02-28T00:35:47;101083.08;;;21.10;49.03
78841;BME280;68191;47.190;27.558;2023-02-28T00:38:18;101090.34;;;21.09;49.03
78841;BME280;68191;47.190;27.558;2023-02-28T00:40:48;101089.81;;;21.09;48.94
78841;BME280;68191;47.190;27.558;2023-02-28T00:43:19;101087.86;;;21.09;48.93
78841;BME280;68191;47.190;27.558;2023-02-28T00:45:49;101086.65;;;21.08;48.95
78841;BME280;68191;47.190;27.558;2023-02-28T00:48:19;101094.23;;;21.07;48.92
78841;BME280;68191;47.190;27.558;2023-02-28T00:50:51;101093.89;;;21.07;48.98
78841;BME280;68191;47.190;27.558;2023-02-28T00:53:21;101097.19;;;21.06;48.99
78841;BME280;68191;47.190;27.558;2023-02-28T00:55:52;101097.63;;;21.05;49.00
78841;BME280;68191;47.190;27.558;2023-02-28T00:58:23;101098.38;;;21.04;48.99
78841;BME280;68191;47.190;27.558;2023-02-28T01:00:54;101103.09;;;21.04;49.00
78841;BME280;68191;47.190;27.558;2023-02-28T01:03:24;101104.57;;;21.03;49.00
78841;BME280;68191;47.190;27.558;2023-02-28T01:05:55;101112.23;;;21.04;48.90
78841;BME280;68191;47.190;27.558;2023-02-28T01:08:25;101118.61;;;21.03;48.97
78841;BME280;68191;47.190;27.558;2023-02-28T01:10:55;101124.73;;;21.02;49.01
78841;BME280;68191;47.190;27.558;2023-02-28T01:13:26;101124.05;;;21.02;49.05
78841;BME280;68191;47.190;27.558;2023-02-28T01:15:57;101130.77;;;21.01;48.87
78841;BME280;68191;47.190;27.558;2023-02-28T01:18:27;101126.63;;;21.01;48.97
78841;BME280;68191;47.190;27.558;2023-02-28T01:20:58;101131.50;;;21.00;49.10
78841;BME280;68191;47.190;27.558;2023-02-28T01:23:28;101135.67;;;21.00;49.00
78841;BME280;68191;47.190;27.558;2023-02-28T01:25:58;101138.96;;;20.99;49.09
78841;BME280;68191;47.190;27.558;2023-02-28T01:28:33;101140.10;;;20.98;49.05
78841;BME280;68191;47.190;27.558;2023-02-28T01:31:04;101140.65;;;20.97;48.90
78841;BME280;68191;47.190;27.558;2023-02-28T01:33:34;101140.13;;;20.97;49.21
78841;BME280;68191;47.190;27.558;2023-02-28T01:36:09;101137.48;;;20.97;49.06
78841;BME280;68191;47.190;27.558;2023-02-28T01:38:39;101134.60;;;20.97;49.14
78841;BME280;68191;47.190;27.558;2023-02-28T01:41:16;101128.86;;;20.97;49.29
78841;BME280;68191;47.190;27.558;2023-02-28T01:44:02;101127.48;;;20.96;49.30
78841;BME280;68191;47.190;27.558;2023-02-28T01:46:33;101117.94;;;20.96;49.27
78841;BME280;68191;47.190;27.558;2023-02-28T01:49:11;101112.59;;;20.95;49.15
78841;BME280;68191;47.190;27.558;2023-02-28T01:51:44;101108.30;;;20.95;49.26
78841;BME280;68191;47.190;27.558;2023-02-28T01:54:23;101110.98;;;20.95;49.25
78841;BME280;68191;47.190;27.558;2023-02-28T01:56:56;101109.51;;;20.96;49.15
78841;BME280;68191;47.190;27.558;2023-02-28T01:59:33;101105.90;;;20.96;49.15
78841;BME280;68191;47.190;27.558;2023-02-28T02:02:04;101108.98;;;20.96;49.16
78841;BME280;68191;47.190;27.558;2023-02-28T02:04:39;101111.87;;;20.95;49.22
78841;BME280;68191;47.190;27.558;2023-02-28T02:07:14;101113.34;;;20.95;49.21
78841;BME280;68191;47.190;27.558;2023-02-28T02:09:44;101114.74;;;20.96;49.19
78841;BME280;68191;47.190;27.558;2023-02-28T02:12:26;101108.11;;;20.95;49.29
78841;BME280;68191;47.190;27.558;2023-02-28T02:15:07;101111.14;;;20.95;49.17
78841;BME280;68191;47.190;27.558;2023-02-28T02:17:47;101114.71;;;20.96;49.10
78841;BME280;68191;47.190;27.558;2023-02-28T02:20:42;101119.91;;;20.96;49.18
78841;BME280;68191;47.190;27.558;2023-02-28T02:23:33;101122.60;;;20.96;49.20
78841;BME280;68191;47.190;27.558;2023-02-28T02:26:32;101131.63;;;20.96;49.14
78841;BME280;68191;47.190;27.558;2023-02-28T02:32:28;101140.38;;;20.96;49.12
78841;BME280;68191;47.190;27.558;2023-02-28T02:35:13;101141.07;;;20.97;49.11
78841;BME280;68191;47.190;27.558;2023-02-28T02:37:50;101141.81;;;20.96;49.29
78841;BME280;68191;47.190;27.558;2023-02-28T02:40:25;101142.13;;;20.97;49.15
78841;BME280;68191;47.190;27.558;2023-02-28T02:43:03;101145.73;;;20.97;49.08
78841;BME280;68191;47.190;27.558;2023-02-28T02:45:39;101146.45;;;20.97;49.12
78841;BME280;68191;47.190;27.558;2023-02-28T02:48:15;101147.49;;;20.98;49.14
78841;BME280;68191;47.190;27.558;2023-02-28T02:50:48;101149.30;;;20.97;49.12
78841;BME280;68191;47.190;27.558;2023-02-28T02:53:21;101146.59;;;20.97;49.02
78841;BME280;68191;47.190;27.558;2023-02-28T02:55:55;101146.59;;;20.98;49.02
78841;BME280;68191;47.190;27.558;2023-02-28T02:58:30;101151.63;;;20.98;49.13
78841;BME280;68191;47.190;27.558;2023-02-28T03:01:04;101156.29;;;20.98;49.04
78841;BME280;68191;47.190;27.558;2023-02-28T03:03:35;101164.91;;;20.98;49.06
78841;BME280;68191;47.190;27.558;2023-02-28T03:06:06;101168.13;;;20.98;49.19
78841;BME280;68191;47.190;27.558;2023-02-28T03:08:38;101165.77;;;20.98;49.02
78841;BME280;68191;47.190;27.558;2023-02-28T03:11:15;101158.42;;;20.98;49.06
78841;BME280;68191;47.190;27.558;2023-02-28T03:14:13;101160.23;;;20.98;49.11
78841;BME280;68191;47.190;27.558;2023-02-28T03:20:03;101166.88;;;20.98;49.01
78841;BME280;68191;47.190;27.558;2023-02-28T03:22:48;101165.25;;;20.98;48.96
78841;BME280;68191;47.190;27.558;2023-02-28T03:25:33;101164.88;;;20.98;49.03
78841;BME280;68191;47.190;27.558;2023-02-28T03:28:08;101169.73;;;20.98;49.00
78841;BME280;68191;47.190;27.558;2023-02-28T03:30:45;101168.56;;;20.97;48.97
78841;BME280;68191;47.190;27.558;2023-02-28T03:33:26;101167.29;;;20.97;49.09
78841;BME280;68191;47.190;27.558;2023-02-28T03:36:01;101163.14;;;20.97;49.00
78841;BME280;68191;47.190;27.558;2023-02-28T03:38:35;101166.89;;;20.98;49.02
78841;BME280;68191;47.190;27.558;2023-02-28T03:41:13;101167.23;;;20.98;49.01
78841;BME280;68191;47.190;27.558;2023-02-28T03:43:47;101166.13;;;20.98;48.93
78841;BME280;68191;47.190;27.558;2023-02-28T03:46:26;101170.27;;;20.98;48.96
78841;BME280;68191;47.190;27.558;2023-02-28T03:49:02;101174.90;;;20.99;49.09
78841;BME280;68191;47.190;27.558;2023-02-28T03:51:37;101174.87;;;20.99;49.02
78841;BME280;68191;47.190;27.558;2023-02-28T03:54:12;101168.77;;;20.99;48.97
78841;BME280;68191;47.190;27.558;2023-02-28T03:56:50;101169.83;;;20.99;48.97
78841;BME280;68191;47.190;27.558;2023-02-28T03:59:26;101172.67;;;21.00;49.03
78841;BME280;68191;47.190;27.558;2023-02-28T04:01:59;101169.98;;;21.00;48.99
78841;BME280;68191;47.190;27.558;2023-02-28T04:04:29;101170.52;;;21.00;48.96
78841;BME280;68191;47.190;27.558;2023-02-28T04:07:06;101170.70;;;21.00;49.11
78841;BME280;68191;47.190;27.558;2023-02-28T04:09:36;101170.85;;;21.00;49.05
78841;BME280;68191;47.190;27.558;2023-02-28T04:12:08;101168.89;;;21.00;49.03
78841;BME280;68191;47.190;27.558;2023-02-28T04:14:39;101173.01;;;21.00;49.00
78841;BME280;68191;47.190;27.558;2023-02-28T04:17:09;101177.84;;;21.01;48.89
78841;BME280;68191;47.190;27.558;2023-02-28T04:19:40;101180.55;;;21.01;49.00
78841;BME280;68191;47.190;27.558;2023-02-28T04:22:11;101179.79;;;21.01;48.95
78841;BME280;68191;47.190;27.558;2023-02-28T04:24:42;101177.29;;;21.01;48.94
78841;BME280;68191;47.190;27.558;2023-02-28T04:27:12;101177.64;;;21.01;48.84
78841;BME280;68191;47.190;27.558;2023-02-28T04:29:44;101174.61;;;21.01;48.83
78841;BME280;68191;47.190;27.558;2023-02-28T04:32:14;101180.79;;;21.02;48.88
78841;BME280;68191;47.190;27.558;2023-02-28T04:34:45;101181.87;;;21.02;48.88
78841;BME280;68191;47.190;27.558;2023-02-28T04:37:15;101177.23;;;21.02;49.00
78841;BME280;68191;47.190;27.558;2023-02-28T04:39:45;101180.59;;;21.03;48.82
78841;BME280;68191;47.190;27.558;2023-02-28T04:42:16;101175.58;;;21.02;48.78
78841;BME280;68191;47.190;27.558;2023-02-28T04:44:47;101176.65;;;21.02;48.91
78841;BME280;68191;47.190;27.558;2023-02-28T04:47:17;101175.99;;;21.01;48.83
78841;BME280;68191;47.190;27.558;2023-02-28T04:49:49;101176.79;;;21.03;48.87
78841;BME280;68191;47.190;27.558;2023-02-28T04:52:20;101176.80;;;21.03;48.86
78841;BME280;68191;47.190;27.558;2023-02-28T04:54:50;101177.89;;;21.03;48.83
78841;BME280;68191;47.190;27.558;2023-02-28T04:57:20;101181.64;;;21.03;48.94
78841;BME280;68191;47.190;27.558;2023-02-28T04:59:51;101179.27;;;21.04;48.80
78841;BME280;68191;47.190;27.558;2023-02-28T05:02:22;101181.23;;;21.04;48.89
78841;BME280;68191;47.190;27.558;2023-02-28T05:04:52;101186.94;;;21.05;48.99
78841;BME280;68191;47.190;27.558;2023-02-28T05:07:23;101193.73;;;21.05;48.96
78841;BME280;68191;47.190;27.558;2023-02-28T05:09:53;101200.01;;;21.05;48.87
78841;BME280;68191;47.190;27.558;2023-02-28T05:12:24;101202.86;;;21.06;48.90
78841;BME280;68191;47.190;27.558;2023-02-28T05:14:54;101204.75;;;21.07;48.82
78841;BME280;68191;47.190;27.558;2023-02-28T05:17:25;101204.01;;;21.07;48.76
78841;BME280;68191;47.190;27.558;2023-02-28T05:19:55;101207.04;;;21.08;48.92
78841;BME280;68191;47.190;27.558;2023-02-28T05:22:25;101207.17;;;21.08;48.81
78841;BME280;68191;47.190;27.558;2023-02-28T05:24:56;101208.40;;;21.09;48.80
78841;BME280;68191;47.190;27.558;2023-02-28T05:27:26;101208.54;;;21.10;48.75
78841;BME280;68191;47.190;27.558;2023-02-28T05:29:57;101210.34;;;21.10;48.71
78841;BME280;68191;47.190;27.558;2023-02-28T05:32:27;101212.30;;;21.10;48.79
78841;BME280;68191;47.190;27.558;2023-02-28T05:34:58;101216.20;;;21.11;48.72
78841;BME280;68191;47.190;27.558;2023-02-28T05:37:28;101222.09;;;21.11;48.84
78841;BME280;68191;47.190;27.558;2023-02-28T05:39:58;101223.85;;;21.12;48.73
78841;BME280;68191;47.190;27.558;2023-02-28T05:42:29;101229.38;;;21.13;48.86
78841;BME280;68191;47.190;27.558;2023-02-28T05:44:59;101231.48;;;21.14;48.81
78841;BME280;68191;47.190;27.558;2023-02-28T05:47:30;101230.02;;;21.14;48.64
78841;BME280;68191;47.190;27.558;2023-02-28T05:50:00;101231.81;;;21.14;48.91
78841;BME280;68191;47.190;27.558;2023-02-28T05:52:30;101234.66;;;21.15;48.79
78841;BME280;68191;47.190;27.558;2023-02-28T05:55:01;101239.12;;;21.15;48.74
78841;BME280;68191;47.190;27.558;2023-02-28T05:57:31;101243.43;;;21.15;48.81
78841;BME280;68191;47.190;27.558;2023-02-28T06:00:02;101250.04;;;21.16;48.74
78841;BME280;68191;47.190;27.558;2023-02-28T06:02:32;101246.60;;;21.16;48.86
78841;BME280;68191;47.190;27.558;2023-02-28T06:05:03;101248.51;;;21.17;48.82
78841;BME280;68191;47.190;27.558;2023-02-28T06:07:33;101255.29;;;21.18;48.87
78841;BME280;68191;47.190;27.558;2023-02-28T06:10:04;101255.61;;;21.19;48.93
78841;BME280;68191;47.190;27.558;2023-02-28T06:12:35;101264.34;;;21.20;48.85
78841;BME280;68191;47.190;27.558;2023-02-28T06:15:07;101262.45;;;21.22;48.91
78841;BME280;68191;47.190;27.558;2023-02-28T06:17:41;101258.66;;;21.22;49.04
78841;BME280;68191;47.190;27.558;2023-02-28T06:20:13;101258.73;;;21.24;49.06
78841;BME280;68191;47.190;27.558;2023-02-28T06:22:43;101254.81;;;21.26;49.16
78841;BME280;68191;47.190;27.558;2023-02-28T06:25:14;101250.30;;;21.29;49.04
78841;BME280;68191;47.190;27.558;2023-02-28T06:27:45;101247.26;;;21.32;49.29
78841;BME280;68191;47.190;27.558;2023-02-28T06:30:16;101248.25;;;21.33;49.30
78841;BME280;68191;47.190;27.558;2023-02-28T06:32:46;101245.52;;;21.37;49.27
78841;BME280;68191;47.190;27.558;2023-02-28T06:35:18;101245.91;;;21.39;49.51
78841;BME280;68191;47.190;27.558;2023-02-28T06:37:49;101249.17;;;21.42;49.72
78841;BME280;68191;47.190;27.558;2023-02-28T06:40:19;101250.89;;;21.46;49.82
78841;BME280;68191;47.190;27.558;2023-02-28T06:42:50;101247.98;;;21.50;49.71
78841;BME280;68191;47.190;27.558;2023-02-28T06:45:20;101244.45;;;21.54;49.59
78841;BME280;68191;47.190;27.558;2023-02-28T06:47:51;101243.55;;;21.57;49.41
78841;BME280;68191;47.190;27.558;2023-02-28T06:50:21;101249.67;;;21.60;49.06
78841;BME280;68191;47.190;27.558;2023-02-28T06:52:52;101251.54;;;21.62;48.55
78841;BME280;68191;47.190;27.558;2023-02-28T06:55:24;101255.58;;;21.64;48.43
78841;BME280;68191;47.190;27.558;2023-02-28T06:57:54;101256.66;;;21.64;48.22
78841;BME280;68191;47.190;27.558;2023-02-28T07:00:25;101260.17;;;21.65;48.26
78841;BME280;68191;47.190;27.558;2023-02-28T07:02:57;101260.59;;;21.67;48.26
78841;BME280;68191;47.190;27.558;2023-02-28T07:05:28;101261.60;;;21.71;48.35
78841;BME280;68191;47.190;27.558;2023-02-28T07:07:58;101262.95;;;21.72;48.40
78841;BME280;68191;47.190;27.558;2023-02-28T07:10:29;101261.58;;;21.74;48.38
78841;BME280;68191;47.190;27.558;2023-02-28T07:13:00;101261.91;;;21.74;48.27
78841;BME280;68191;47.190;27.558;2023-02-28T07:15:31;101267.06;;;21.72;48.03
78841;BME280;68191;47.190;27.558;2023-02-28T07:18:01;101268.56;;;21.69;47.52
78841;BME280;68191;47.190;27.558;2023-02-28T07:20:32;101270.08;;;21.65;47.02
78841;BME280;68191;47.190;27.558;2023-02-28T07:23:03;101269.21;;;21.61;46.06
78841;BME280;68191;47.190;27.558;2023-02-28T07:25:33;101270.35;;;21.60;45.55
78841;BME280;68191;47.190;27.558;2023-02-28T07:28:03;101272.56;;;21.62;45.65
78841;BME280;68191;47.190;27.558;2023-02-28T07:30:34;101278.17;;;21.65;45.65
78841;BME280;68191;47.190;27.558;2023-02-28T07:33:04;101278.75;;;21.67;45.83
78841;BME280;68191;47.190;27.558;2023-02-28T07:35:35;101276.42;;;21.70;45.90
78841;BME280;68191;47.190;27.558;2023-02-28T07:38:06;101276.16;;;21.73;46.00
78841;BME280;68191;47.190;27.558;2023-02-28T07:40:38;101274.47;;;21.77;46.18
78841;BME280;68191;47.190;27.558;2023-02-28T07:43:08;101277.63;;;21.81;46.03
78841;BME280;68191;47.190;27.558;2023-02-28T07:45:39;101276.77;;;21.87;46.08
78841;BME280;68191;47.190;27.558;2023-02-28T07:48:09;101276.01;;;21.93;46.18
78841;BME280;68191;47.190;27.558;2023-02-28T07:50:40;101273.54;;;22.00;46.10
78841;BME280;68191;47.190;27.558;2023-02-28T07:53:10;101274.66;;;22.06;46.12
78841;BME280;68191;47.190;27.558;2023-02-28T07:55:41;101280.13;;;22.10;46.11
78841;BME280;68191;47.190;27.558;2023-02-28T07:58:11;101280.19;;;22.12;46.07
78841;BME280;68191;47.190;27.558;2023-02-28T08:00:41;101281.38;;;22.15;46.10
78841;BME280;68191;47.190;27.558;2023-02-28T08:03:12;101282.85;;;22.18;46.13
78841;BME280;68191;47.190;27.558;2023-02-28T08:05:43;101286.14;;;22.20;46.17
78841;BME280;68191;47.190;27.558;2023-02-28T08:08:13;101288.79;;;22.24;46.04
78841;BME280;68191;47.190;27.558;2023-02-28T08:10:44;101289.51;;;22.27;46.03
78841;BME280;68191;47.190;27.558;2023-02-28T08:13:15;101295.76;;;22.30;46.09
78841;BME280;68191;47.190;27.558;2023-02-28T08:15:45;101295.62;;;22.32;46.13
78841;BME280;68191;47.190;27.558;2023-02-28T08:18:16;101299.17;;;22.36;46.15
78841;BME280;68191;47.190;27.558;2023-02-28T08:20:47;101300.30;;;22.41;46.25
78841;BME280;68191;47.190;27.558;2023-02-28T08:23:17;101302.02;;;22.44;46.15
78841;BME280;68191;47.190;27.558;2023-02-28T08:25:54;101302.33;;;22.48;46.24
78841;BME280;68191;47.190;27.558;2023-02-28T08:28:25;101299.04;;;22.52;46.12
78841;BME280;68191;47.190;27.558;2023-02-28T08:30:56;101302.06;;;22.55;46.10
78841;BME280;68191;47.190;27.558;2023-02-28T08:33:28;101304.92;;;22.58;46.09
78841;BME280;68191;47.190;27.558;2023-02-28T08:36:00;101306.46;;;22.62;46.09
78841;BME280;68191;47.190;27.558;2023-02-28T08:38:30;101305.60;;;22.64;46.03
78841;BME280;68191;47.190;27.558;2023-02-28T08:41:02;101304.04;;;22.69;45.95
78841;BME280;68191;47.190;27.558;2023-02-28T08:43:36;101302.05;;;22.74;46.21
78841;BME280;68191;47.190;27.558;2023-02-28T08:46:07;101302.36;;;22.77;45.94
78841;BME280;68191;47.190;27.558;2023-02-28T08:48:38;101298.73;;;22.83;45.79
78841;BME280;68191;47.190;27.558;2023-02-28T08:51:11;101297.62;;;22.89;45.87
78841;BME280;68191;47.190;27.558;2023-02-28T08:53:42;101296.52;;;22.94;45.69
78841;BME280;68191;47.190;27.558;2023-02-28T08:56:14;101294.47;;;23.01;45.67
78841;BME280;68191;47.190;27.558;2023-02-28T08:58:44;101293.15;;;23.07;45.75
78841;BME280;68191;47.190;27.558;2023-02-28T09:01:17;101299.29;;;23.13;45.50
78841;BME280;68191;47.190;27.558;2023-02-28T09:03:49;101295.09;;;23.21;45.30
78841;BME280;68191;47.190;27.558;2023-02-28T09:06:21;101288.35;;;23.30;45.37
78841;BME280;68191;47.190;27.558;2023-02-28T09:08:53;101289.83;;;23.40;45.06
78841;BME280;68191;47.190;27.558;2023-02-28T09:11:27;101293.57;;;23.48;44.95
78841;BME280;68191;47.190;27.558;2023-02-28T09:13:59;101298.88;;;23.55;44.74
78841;BME280;68191;47.190;27.558;2023-02-28T09:16:29;101298.59;;;23.61;44.47
78841;BME280;68191;47.190;27.558;2023-02-28T09:19:01;101301.70;;;23.68;44.33
78841;BME280;68191;47.190;27.558;2023-02-28T09:21:31;101301.84;;;23.77;44.23
78841;BME280;68191;47.190;27.558;2023-02-28T09:24:02;101300.13;;;23.88;43.98
78841;BME280;68191;47.190;27.558;2023-02-28T09:26:33;101293.71;;;24.00;43.81
78841;BME280;68191;47.190;27.558;2023-02-28T09:29:04;101294.52;;;24.11;43.67
78841;BME280;68191;47.190;27.558;2023-02-28T09:31:35;101293.21;;;24.21;43.49
78841;BME280;68191;47.190;27.558;2023-02-28T09:34:06;101290.91;;;24.35;43.09
78841;BME280;68191;47.190;27.558;2023-02-28T09:36:36;101288.05;;;24.47;43.10
78841;BME280;68191;47.190;27.558;2023-02-28T09:39:07;101286.79;;;24.49;42.88
78841;BME280;68191;47.190;27.558;2023-02-28T09:41:41;101291.40;;;24.48;42.84
78841;BME280;68191;47.190;27.558;2023-02-28T09:44:22;101297.98;;;24.44;42.72
78841;BME280;68191;47.190;27.558;2023-02-28T09:46:58;101298.72;;;24.39;42.62
78841;BME280;68191;47.190;27.558;2023-02-28T09:49:37;101300.22;;;24.36;42.59
78841;BME280;68191;47.190;27.558;2023-02-28T09:52:14;101298.74;;;24.37;42.43
78841;BME280;68191;47.190;27.558;2023-02-28T09:54:46;101297.04;;;24.45;42.33
78841;BME280;68191;47.190;27.558;2023-02-28T09:57:23;101295.77;;;24.55;42.14
78841;BME280;68191;47.190;27.558;2023-02-28T10:00:07;101295.39;;;24.56;41.92
78841;BME280;68191;47.190;27.558;2023-02-28T10:02:51;101286.84;;;24.48;41.53
78841;BME280;68191;47.190;27.558;2023-02-28T10:05:26;101288.89;;;24.43;41.56
78841;BME280;68191;47.190;27.558;2023-02-28T10:08:05;101292.71;;;24.38;41.83
78841;BME280;68191;47.190;27.558;2023-02-28T10:10:41;101288.65;;;24.34;42.06
78841;BME280;68191;47.190;27.558;2023-02-28T10:13:20;101290.78;;;24.29;42.11
78841;BME280;68191;47.190;27.558;2023-02-28T10:15:56;101287.17;;;24.25;42.21
78841;BME280;68191;47.190;27.558;2023-02-28T10:18:34;101290.40;;;24.20;42.33
78841;BME280;68191;47.190;27.558;2023-02-28T10:21:17;101284.63;;;24.15;42.54
78841;BME280;68191;47.190;27.558;2023-02-28T10:23:51;101282.01;;;24.09;42.77
78841;BME280;68191;47.190;27.558;2023-02-28T10:26:24;101282.30;;;24.02;42.86
78841;BME280;68191;47.190;27.558;2023-02-28T10:28:56;101283.23;;;23.95;42.99
78841;BME280;68191;47.190;27.558;2023-02-28T10:31:27;101285.16;;;23.86;42.23
78841;BME280;68191;47.190;27.558;2023-02-28T10:33:58;101281.42;;;23.72;41.66
78841;BME280;68191;47.190;27.558;2023-02-28T10:36:28;101278.73;;;23.56;41.03
78841;BME280;68191;47.190;27.558;2023-02-28T10:38:59;101273.34;;;23.41;40.91
78841;BME280;68191;47.190;27.558;2023-02-28T10:41:31;101266.93;;;23.26;40.97
78841;BME280;68191;47.190;27.558;2023-02-28T10:44:22;101261.33;;;23.14;40.95
78841;BME280;68191;47.190;27.558;2023-02-28T10:46:53;101261.31;;;23.01;40.78
78841;BME280;68191;47.190;27.558;2023-02-28T10:49:26;101256.30;;;22.92;40.75
78841;BME280;68191;47.190;27.558;2023-02-28T10:51:59;101252.24;;;22.86;40.80
78841;BME280;68191;47.190;27.558;2023-02-28T10:54:32;101244.86;;;22.80;40.72
78841;BME280;68191;47.190;27.558;2023-02-28T10:57:20;101244.68;;;22.78;40.74
78841;BME280;68191;47.190;27.558;2023-02-28T11:00:06;101246.58;;;22.76;40.71
78841;BME280;68191;47.190;27.558;2023-02-28T11:02:44;101248.24;;;22.76;40.78
78841;BME280;68191;47.190;27.558;2023-02-28T11:05:31;101246.40;;;22.74;40.63
78841;BME280;68191;47.190;27.558;2023-02-28T11:08:10;101242.77;;;22.71;40.54
78841;BME280;68191;47.190;27.558;2023-02-28T11:10:46;101238.92;;;22.67;40.54
78841;BME280;68191;47.190;27.558;2023-02-28T11:13:24;101240.52;;;22.62;40.56
78841;BME280;68191;47.190;27.558;2023-02-28T11:15:58;101239.45;;;22.59;40.60
78841;BME280;68191;47.190;27.558;2023-02-28T11:18:32;101240.13;;;22.57;40.56
78841;BME280;68191;47.190;27.558;2023-02-28T11:21:07;101239.25;;;22.54;40.65
78841;BME280;68191;47.190;27.558;2023-02-28T11:23:42;101236.37;;;22.51;40.53
78841;BME280;68191;47.190;27.558;2023-02-28T11:26:14;101233.90;;;22.48;40.46
78841;BME280;68191;47.190;27.558;2023-02-28T11:28:45;101228.20;;;22.47;40.55
78841;BME280;68191;47.190;27.558;2023-02-28T11:31:19;101226.38;;;22.48;41.14
78841;BME280;68191;47.190;27.558;2023-02-28T11:33:52;101223.54;;;22.52;40.33
78841;BME280;68191;47.190;27.558;2023-02-28T11:36:27;101220.73;;;22.54;39.50
78841;BME280;68191;47.190;27.558;2023-02-28T11:39:04;101219.06;;;22.54;39.00
78841;BME280;68191;47.190;27.558;2023-02-28T11:41:58;101221.11;;;22.53;38.62
78841;BME280;68191;47.190;27.558;2023-02-28T11:44:52;101219.63;;;22.52;37.78
78841;BME280;68191;47.190;27.558;2023-02-28T11:47:36;101216.65;;;22.47;37.10
78841;BME280;68191;47.190;27.558;2023-02-28T11:50:27;101215.67;;;22.43;37.08
78841;BME280;68191;47.190;27.558;2023-02-28T11:53:13;101216.16;;;22.41;36.72
78841;BME280;68191;47.190;27.558;2023-02-28T11:55:52;101212.26;;;22.38;36.12
78841;BME280;68191;47.190;27.558;2023-02-28T11:58:44;101210.93;;;22.33;36.00
78841;BME280;68191;47.190;27.558;2023-02-28T12:01:30;101210.67;;;22.29;35.86
78841;BME280;68191;47.190;27.558;2023-02-28T12:04:17;101209.88;;;22.25;35.75
78841;BME280;68191;47.190;27.558;2023-02-28T12:06:52;101213.66;;;22.22;35.32
78841;BME280;68191;47.190;27.558;2023-02-28T12:09:50;101216.55;;;22.19;35.24
78841;BME280;68191;47.190;27.558;2023-02-28T12:12:36;101219.16;;;22.15;35.31
78841;BME280;68191;47.190;27.558;2023-02-28T12:15:24;101211.27;;;22.09;35.28
78841;BME280;68191;47.190;27.558;2023-02-28T12:18:21;101216.05;;;22.07;35.87
78841;BME280;68191;47.190;27.558;2023-02-28T12:20:57;101210.00;;;22.06;36.23
78841;BME280;68191;47.190;27.558;2023-02-28T12:23:57;101212.64;;;22.07;36.61
78841;BME280;68191;47.190;27.558;2023-02-28T12:26:38;101208.46;;;22.08;37.04
78841;BME280;68191;47.190;27.558;2023-02-28T12:29:16;101208.26;;;22.08;37.39
78841;BME280;68191;47.190;27.558;2023-02-28T12:31:51;101203.35;;;22.09;37.69
78841;BME280;68191;47.190;27.558;2023-02-28T12:34:28;101201.32;;;22.10;38.08
78841;BME280;68191;47.190;27.558;2023-02-28T12:37:06;101199.31;;;22.10;38.43
78841;BME280;68191;47.190;27.558;2023-02-28T12:39:42;101199.05;;;22.11;38.94
78841;BME280;68191;47.190;27.558;2023-02-28T12:42:22;101194.39;;;22.11;39.35
78841;BME280;68191;47.190;27.558;2023-02-28T12:44:59;101198.29;;;22.12;39.83
78841;BME280;68191;47.190;27.558;2023-02-28T12:47:31;101199.84;;;22.13;40.28
78841;BME280;68191;47.190;27.558;2023-02-28T12:50:05;101199.44;;;22.14;40.66
78841;BME280;68191;47.190;27.558;2023-02-28T12:52:44;101195.96;;;22.14;41.17
78841;BME280;68191;47.190;27.558;2023-02-28T12:55:23;101197.10;;;22.16;41.66
78841;BME280;68191;47.190;27.558;2023-02-28T12:58:05;101204.23;;;22.17;42.16
78841;BME280;68191;47.190;27.558;2023-02-28T13:00:48;101202.94;;;22.17;42.48
78841;BME280;68191;47.190;27.558;2023-02-28T13:03:46;101195.35;;;22.18;42.83
78841;BME280;68191;47.190;27.558;2023-02-28T13:06:22;101192.99;;;22.18;43.15
78841;BME280;68191;47.190;27.558;2023-02-28T13:09:10;101192.14;;;22.17;43.44
78841;BME280;68191;47.190;27.558;2023-02-28T13:11:44;101189.55;;;22.19;43.53
78841;BME280;68191;47.190;27.558;2023-02-28T13:14:29;101188.80;;;22.19;43.65
78841;BME280;68191;47.190;27.558;2023-02-28T13:17:03;101187.14;;;22.20;43.80
78841;BME280;68191;47.190;27.558;2023-02-28T13:19:43;101177.26;;;22.19;43.95
78841;BME280;68191;47.190;27.558;2023-02-28T13:22:35;101177.81;;;22.19;44.04